Time;durP1;ratioP1;P1;durP2;ratioP2;P2;SDS_P1;SDS_P2;PMS_P1;PMS_P2;Temp;Humidity;BMP_temperature;BMP_pressure;BME280_temperature;BME280_humidity;BME280_pressure;Samples;Min_cycle;Max_cycle;Signal;HPM_P1;HPM_P2
2023/10/17 00:01:35;;;;;;;14.93;6.35;;;;;;;;;;4977400;28;20173;-73
2023/10/17 00:06:58;;;;;;;12.23;7.32;;;;;;;;;;4977956;28;20035;-73
2023/10/17 00:09:24;;;;;;;19.08;8.23;;;;;;;;;;4976833;28;20057;-73
2023/10/17 00:14:26;;;;;;;16.60;7.82;;;;;;;;;;4991851;28;20054;-74
2023/10/17 00:16:55;;;;;;;15.02;7.95;;;;;;;;;;4978482;28;20045;-73
2023/10/17 00:19:31;;;;;;;15.52;7.93;;;;;;;;;;4976603;28;20518;-74
2023/10/17 00:21:59;;;;;;;20.80;8.05;;;;;;;;;;4977617;28;20073;-73
2023/10/17 00:24:24;;;;;;;15.88;8.65;;;;;;;;;;4977280;28;20046;-73
2023/10/17 00:26:50;;;;;;;20.67;9.32;;;;;;;;;;4980386;28;20042;-74
2023/10/17 00:29:15;;;;;;;17.23;9.02;;;;;;;;;;4979034;28;20781;-73
2023/10/17 00:31:43;;;;;;;13.40;8.65;;;;;;;;;;4976044;28;20042;-74
2023/10/17 00:34:15;;;;;;;13.77;8.13;;;;;;;;;;4991691;28;20093;-74
2023/10/17 00:36:48;;;;;;;13.45;8.25;;;;;;;;;;4977093;28;20555;-73
2023/10/17 00:39:25;;;;;;;17.63;9.02;;;;;;;;;;4976490;28;20076;-73
2023/10/17 00:42:09;;;;;;;16.17;8.82;;;;;;;;;;4977605;28;20129;-74
2023/10/17 00:44:37;;;;;;;15.43;8.30;;;;;;;;;;4976193;28;20141;-73
2023/10/17 00:47:05;;;;;;;14.30;8.57;;;;;;;;;;4977161;28;20046;-73
2023/10/17 00:49:40;;;;;;;14.02;9.05;;;;;;;;;;4975750;28;20050;-73
2023/10/17 00:52:16;;;;;;;15.00;9.05;;;;;;;;;;4977572;28;20046;-74
2023/10/17 00:54:46;;;;;;;19.63;10.07;;;;;;;;;;4976507;28;20097;-73
2023/10/17 00:57:14;;;;;;;19.08;9.30;;;;;;;;;;4977425;28;20065;-74
2023/10/17 00:59:44;;;;;;;13.57;9.23;;;;;;;;;;4976187;28;20614;-74
2023/10/17 01:02:11;;;;;;;14.98;9.05;;;;;;;;;;4976130;28;20630;-74
2023/10/17 01:04:40;;;;;;;14.70;9.20;;;;;;;;;;4976019;28;20042;-74
2023/10/17 01:07:07;;;;;;;15.30;9.15;;;;;;;;;;4974966;28;20046;-74
2023/10/17 01:09:35;;;;;;;20.58;11.15;;;;;;;;;;4974190;28;20976;-74
2023/10/17 01:12:02;;;;;;;16.75;10.45;;;;;;;;;;4974643;28;20042;-73
2023/10/17 01:14:32;;;;;;;19.67;10.65;;;;;;;;;;4974325;28;20137;-74
2023/10/17 01:16:58;;;;;;;16.48;9.07;;;;;;;;;;4975402;28;20042;-74
2023/10/17 01:19:23;;;;;;;16.92;10.05;;;;;;;;;;4975443;28;20403;-74
2023/10/17 01:21:49;;;;;;;15.90;9.35;;;;;;;;;;4976463;28;20062;-74
2023/10/17 01:24:16;;;;;;;17.50;10.02;;;;;;;;;;4975955;28;20043;-74
2023/10/17 01:26:45;;;;;;;18.70;10.73;;;;;;;;;;4961567;28;20069;-74
2023/10/17 01:29:11;;;;;;;16.75;9.55;;;;;;;;;;4975364;28;20066;-74
2023/10/17 01:31:43;;;;;;;17.48;9.65;;;;;;;;;;4975361;28;20136;-73
2023/10/17 01:34:10;;;;;;;16.95;9.55;;;;;;;;;;4980172;28;20413;-74
2023/10/17 01:36:37;;;;;;;17.05;10.18;;;;;;;;;;4979187;28;20477;-74
2023/10/17 01:39:06;;;;;;;15.20;9.95;;;;;;;;;;4979368;28;20046;-74
2023/10/17 01:41:32;;;;;;;16.48;9.80;;;;;;;;;;4980235;28;20070;-74
2023/10/17 01:43:57;;;;;;;20.45;11.77;;;;;;;;;;4979179;28;20767;-74
2023/10/17 01:46:23;;;;;;;17.40;9.35;;;;;;;;;;4979271;28;20129;-74
2023/10/17 01:48:55;;;;;;;17.48;10.07;;;;;;;;;;4979381;28;20048;-73
2023/10/17 01:51:23;;;;;;;18.73;11.00;;;;;;;;;;4979847;28;20077;-75
2023/10/17 01:53:50;;;;;;;17.42;11.63;;;;;;;;;;4981077;28;20054;-74
2023/10/17 01:56:16;;;;;;;21.08;11.27;;;;;;;;;;4978699;28;20522;-74
2023/10/17 01:58:48;;;;;;;20.08;11.52;;;;;;;;;;4964357;28;20151;-74
2023/10/17 02:01:21;;;;;;;18.50;10.07;;;;;;;;;;4962614;28;20092;-74
2023/10/17 02:03:47;;;;;;;17.88;10.27;;;;;;;;;;4963366;28;20038;-74
2023/10/17 02:06:16;;;;;;;19.45;11.18;;;;;;;;;;4979006;28;20050;-74
2023/10/17 02:08:43;;;;;;;22.60;11.98;;;;;;;;;;4978395;28;20133;-74
2023/10/17 02:11:13;;;;;;;19.73;11.10;;;;;;;;;;4979581;28;20053;-74
2023/10/17 02:13:41;;;;;;;21.05;12.82;;;;;;;;;;4978330;28;20062;-73
2023/10/17 02:16:09;;;;;;;21.52;12.20;;;;;;;;;;4979747;28;20145;-73
2023/10/17 02:18:34;;;;;;;18.85;11.68;;;;;;;;;;4978375;28;20054;-73
2023/10/17 02:21:04;;;;;;;27.33;12.20;;;;;;;;;;4979263;28;20109;-74
2023/10/17 02:23:39;;;;;;;20.13;11.57;;;;;;;;;;4979211;28;20128;-73
2023/10/17 02:26:09;;;;;;;22.13;11.32;;;;;;;;;;4978389;28;20046;-74
2023/10/17 02:28:44;;;;;;;22.85;11.70;;;;;;;;;;4978149;28;20038;-74
2023/10/17 02:31:15;;;;;;;20.33;11.60;;;;;;;;;;4980260;28;20171;-73
2023/10/17 02:33:43;;;;;;;21.50;10.98;;;;;;;;;;4978553;28;20054;-73
2023/10/17 02:36:16;;;;;;;20.13;11.65;;;;;;;;;;4977004;28;20549;-73
2023/10/17 02:38:45;;;;;;;18.10;10.00;;;;;;;;;;4977830;28;20157;-74
2023/10/17 02:41:18;;;;;;;21.20;10.60;;;;;;;;;;4978569;28;20066;-74
2023/10/17 02:43:48;;;;;;;15.25;9.10;;;;;;;;;;4977359;28;20104;-74
2023/10/17 02:46:14;;;;;;;17.38;11.05;;;;;;;;;;4977011;28;20145;-75
2023/10/17 02:48:48;;;;;;;18.92;10.93;;;;;;;;;;4961756;28;20038;-74
2023/10/17 02:53:52;;;;;;;24.88;10.52;;;;;;;;;;4978370;28;20042;-74
2023/10/17 02:56:19;;;;;;;19.48;10.43;;;;;;;;;;4978892;28;20061;-74
2023/10/17 02:58:49;;;;;;;21.42;12.30;;;;;;;;;;4977202;28;20860;-74
2023/10/17 03:01:14;;;;;;;19.02;10.27;;;;;;;;;;4978238;28;20039;-73
2023/10/17 03:03:42;;;;;;;22.52;11.18;;;;;;;;;;4977538;28;20610;-74
2023/10/17 03:06:08;;;;;;;17.83;10.98;;;;;;;;;;4977763;28;20050;-74
2023/10/17 03:08:37;;;;;;;20.38;10.77;;;;;;;;;;4976681;28;20050;-73
2023/10/17 03:11:08;;;;;;;18.88;11.20;;;;;;;;;;4978064;28;20046;-73
2023/10/17 03:13:43;;;;;;;18.23;9.93;;;;;;;;;;4961745;28;20046;-73
2023/10/17 03:16:43;;;;;;;17.83;10.35;;;;;;;;;;4961708;28;20046;-73
2023/10/17 03:19:05;;;;;;;18.27;10.18;;;;;;;;;;4978571;28;20061;-74
2023/10/17 03:21:35;;;;;;;17.50;11.20;;;;;;;;;;4974468;28;20077;-74
2023/10/17 03:24:04;;;;;;;17.67;10.60;;;;;;;;;;4976765;28;20045;-74
2023/10/17 03:26:42;;;;;;;23.55;12.05;;;;;;;;;;4977806;28;20112;-74
2023/10/17 03:29:19;;;;;;;21.52;12.57;;;;;;;;;;4961081;28;20459;-73
2023/10/17 03:31:48;;;;;;;20.23;11.82;;;;;;;;;;4992000;28;20054;-73
2023/10/17 03:34:19;;;;;;;20.83;11.55;;;;;;;;;;4961227;28;20046;-74
2023/10/17 03:36:49;;;;;;;21.08;12.07;;;;;;;;;;4960067;28;20049;-74
2023/10/17 03:39:27;;;;;;;20.10;12.20;;;;;;;;;;4961571;28;20629;-73
2023/10/17 03:41:58;;;;;;;18.25;11.07;;;;;;;;;;4978386;28;20043;-74
2023/10/17 03:44:30;;;;;;;20.02;11.85;;;;;;;;;;4991360;28;20050;-74
2023/10/17 03:47:03;;;;;;;22.27;12.88;;;;;;;;;;4993013;28;20049;-74
2023/10/17 03:49:36;;;;;;;22.20;13.20;;;;;;;;;;4978268;28;20042;-74
2023/10/17 03:52:06;;;;;;;17.92;11.15;;;;;;;;;;4961425;28;20042;-74
2023/10/17 03:54:38;;;;;;;18.05;11.45;;;;;;;;;;4959893;28;20050;-74
2023/10/17 03:57:05;;;;;;;;;;;;;;;;;;4977749;28;20046;-74
2023/10/17 03:59:40;;;;;;;16.10;9.18;;;;;;;;;;4976650;28;19921;-74
2023/10/17 04:02:07;;;;;;;27.00;10.38;;;;;;;;;;4992792;28;20046;-74
2023/10/17 04:04:53;;;;;;;24.80;12.98;;;;;;;;;;4959577;28;20057;-74
2023/10/17 04:07:21;;;;;;;19.27;11.52;;;;;;;;;;4978798;28;20510;-75
2023/10/17 04:09:53;;;;;;;22.70;12.90;;;;;;;;;;4977683;28;20042;-74
2023/10/17 04:12:38;;;;;;;23.65;10.80;;;;;;;;;;4976182;28;20049;-74
2023/10/17 04:15:07;;;;;;;21.90;10.93;;;;;;;;;;4967340;28;20054;-73
2023/10/17 04:17:36;;;;;;;19.67;11.05;;;;;;;;;;4974784;28;20488;-74
2023/10/17 04:20:11;;;;;;;24.52;11.55;;;;;;;;;;4976882;28;20045;-73
2023/10/17 04:22:38;;;;;;;23.65;11.40;;;;;;;;;;4978057;28;20130;-73
2023/10/17 04:25:20;;;;;;;25.10;12.43;;;;;;;;;;4975302;28;20066;-73
2023/10/17 04:27:58;;;;;;;21.38;12.90;;;;;;;;;;4977170;28;20583;-73
2023/10/17 04:30:30;;;;;;;18.50;11.88;;;;;;;;;;4977610;28;20872;-72
2023/10/17 04:33:08;;;;;;;19.48;12.35;;;;;;;;;;4976515;28;20045;-72
2023/10/17 04:35:35;;;;;;;28.05;12.15;;;;;;;;;;4975600;28;20050;-73
2023/10/17 04:38:19;;;;;;;22.35;12.57;;;;;;;;;;4990223;28;20046;-72
2023/10/17 04:44:20;;;;;;;23.00;13.38;;;;;;;;;;4972580;28;20052;-72
2023/10/17 04:46:34;;;;;;;21.05;12.18;;;;;;;;;;4970874;28;20061;-72
2023/10/17 04:49:17;;;;;;;26.83;12.48;;;;;;;;;;4976087;28;20426;-73
2023/10/17 04:51:43;;;;;;;19.23;11.15;;;;;;;;;;4972868;28;20039;-72
2023/10/17 04:54:22;;;;;;;15.70;10.38;;;;;;;;;;4973114;28;20583;-72
2023/10/17 04:57:40;;;;;;;20.77;11.80;;;;;;;;;;4975881;28;20046;-73
2023/10/17 04:59:43;;;;;;;19.48;11.40;;;;;;;;;;4975591;28;20066;-73
2023/10/17 05:02:35;;;;;;;21.30;11.10;;;;;;;;;;4974787;28;20054;-72
2023/10/17 06:18:49;;;;;;;23.00;11.18;;;;;;;;;;4975408;28;20047;-74
2023/10/17 06:21:18;;;;;;;16.52;9.32;;;;;;;;;;4977073;28;20054;-74
2023/10/17 06:26:59;;;;;;;17.42;10.43;;;;;;;;;;4979574;28;20514;-73
2023/10/17 06:32:16;;;;;;;21.08;8.13;;;;;;;;;;4978039;28;20137;-73
2023/10/17 06:34:44;;;;;;;15.23;8.80;;;;;;;;;;4989422;28;20053;-75
2023/10/17 06:37:11;;;;;;;15.13;9.00;;;;;;;;;;4973016;28;20054;-77
2023/10/17 06:39:47;;;;;;;16.55;9.60;;;;;;;;;;4978867;28;20057;-78
2023/10/17 06:42:17;;;;;;;14.57;9.43;;;;;;;;;;4964777;28;20061;-78
2023/10/17 06:44:54;;;;;;;20.70;9.75;;;;;;;;;;4982266;28;20038;-77
2023/10/17 06:48:07;;;;;;;16.05;9.55;;;;;;;;;;4977589;28;20081;-77
2023/10/17 06:55:28;;;;;;;21.52;9.63;;;;;;;;;;4991283;28;20164;-77
2023/10/17 06:57:57;;;;;;;25.20;9.65;;;;;;;;;;4973206;28;20191;-77
2023/10/17 07:00:42;;;;;;;15.05;9.18;;;;;;;;;;4991998;28;20056;-75
2023/10/17 07:03:09;;;;;;;16.30;8.20;;;;;;;;;;4991983;28;20035;-75
2023/10/17 07:05:38;;;;;;;19.85;9.07;;;;;;;;;;4959046;28;20054;-77
2023/10/17 07:08:13;;;;;;;18.20;10.73;;;;;;;;;;4975329;28;20082;-78
2023/10/17 07:10:39;;;;;;;22.42;9.48;;;;;;;;;;4974922;28;20050;-79
2023/10/17 07:14:10;;;;;;;22.65;11.20;;;;;;;;;;4973859;28;20054;-79
2023/10/17 07:24:33;;;;;;;17.20;9.68;;;;;;;;;;4968178;28;20077;-75
2023/10/17 07:27:01;;;;;;;19.88;9.52;;;;;;;;;;4958068;28;20049;-76
2023/10/17 07:29:30;;;;;;;25.75;9.23;;;;;;;;;;4976384;28;20516;-75
2023/10/17 07:32:01;;;;;;;15.18;8.82;;;;;;;;;;4985620;28;20038;-75
2023/10/17 07:34:36;;;;;;;20.33;10.65;;;;;;;;;;4972531;28;20038;-73
2023/10/17 07:37:22;;;;;;;23.85;11.40;;;;;;;;;;4965708;28;20042;-74
2023/10/17 07:40:03;;;;;;;17.77;9.55;;;;;;;;;;4962032;28;20875;-75
2023/10/17 07:42:31;;;;;;;21.75;9.23;;;;;;;;;;4972412;28;20637;-75
2023/10/17 07:45:01;;;;;;;20.55;10.65;;;;;;;;;;4974571;28;20058;-74
2023/10/17 07:47:33;;;;;;;19.70;10.25;;;;;;;;;;4975475;28;20108;-74
2023/10/17 07:50:00;;;;;;;24.15;10.52;;;;;;;;;;4955625;28;20098;-75
2023/10/17 07:52:26;;;;;;;16.92;9.80;;;;;;;;;;4958915;28;20188;-74
2023/10/17 07:57:40;;;;;;;20.40;10.90;;;;;;;;;;4975764;28;20061;-73
2023/10/17 08:03:00;;;;;;;17.90;9.35;;;;;;;;;;4989363;28;20058;-73
2023/10/17 08:05:36;;;;;;;15.75;9.07;;;;;;;;;;4972512;28;20064;-74
2023/10/17 08:08:08;;;;;;;15.73;8.98;;;;;;;;;;4973392;28;20057;-74
2023/10/17 08:10:38;;;;;;;;;;;;;;;;;;4977465;28;20058;-73
2023/10/17 08:13:07;;;;;;;16.48;8.18;;;;;;;;;;4976707;28;19921;-73
2023/10/17 08:15:38;;;;;;;20.13;9.82;;;;;;;;;;4976758;28;20046;-74
2023/10/17 08:18:14;;;;;;;16.33;9.20;;;;;;;;;;4958904;28;20061;-74
2023/10/17 08:21:32;;;;;;;16.65;9.32;;;;;;;;;;4974087;28;20613;-74
2023/10/17 08:23:34;;;;;;;20.15;9.68;;;;;;;;;;4976234;28;20056;-74
2023/10/17 08:26:01;;;;;;;16.10;8.93;;;;;;;;;;4973969;28;20121;-75
2023/10/17 08:31:26;;;;;;;13.45;8.73;;;;;;;;;;4974233;28;20046;-73
2023/10/17 08:42:11;;;;;;;16.92;8.55;;;;;;;;;;4974668;28;20054;-74
2023/10/17 08:44:39;;;;;;;14.30;8.88;;;;;;;;;;4979572;28;20042;-77
2023/10/17 08:47:04;;;;;;;14.32;8.52;;;;;;;;;;4978803;28;20062;-76
2023/10/17 08:49:31;;;;;;;16.88;9.05;;;;;;;;;;4979527;28;20042;-76
2023/10/17 08:51:59;;;;;;;17.67;8.60;;;;;;;;;;4975552;28;20046;-76
2023/10/17 08:54:29;;;;;;;14.10;7.82;;;;;;;;;;4979084;28;20141;-75
2023/10/17 08:56:59;;;;;;;12.98;7.85;;;;;;;;;;4977554;28;20693;-76
2023/10/17 09:02:29;;;;;;;11.52;6.90;;;;;;;;;;4977262;28;20054;-76
2023/10/17 09:05:18;;;;;;;12.23;7.90;;;;;;;;;;4977849;28;20056;-75
2023/10/17 09:07:54;;;;;;;14.23;6.97;;;;;;;;;;4956268;28;20066;-76
2023/10/17 09:10:27;;;;;;;10.50;7.30;;;;;;;;;;4978469;28;20213;-76
2023/10/17 09:15:55;;;;;;;11.68;7.07;;;;;;;;;;4978075;28;20058;-75
2023/10/17 09:18:27;;;;;;;10.40;7.13;;;;;;;;;;4980004;28;20046;-76
2023/10/17 09:20:54;;;;;;;13.05;7.30;;;;;;;;;;4978496;28;20054;-75
2023/10/17 09:23:28;;;;;;;10.77;7.25;;;;;;;;;;4979293;28;20046;-74
2023/10/17 09:26:07;;;;;;;12.95;7.63;;;;;;;;;;4976751;28;20061;-76
2023/10/17 09:28:33;;;;;;;13.80;7.85;;;;;;;;;;4993731;28;20207;-76
2023/10/17 09:31:03;;;;;;;12.77;7.38;;;;;;;;;;4978544;28;20105;-76
2023/10/17 09:33:31;;;;;;;14.45;8.07;;;;;;;;;;4977895;28;20364;-75
2023/10/17 09:36:04;;;;;;;14.88;8.50;;;;;;;;;;4958897;28;20053;-79
2023/10/17 09:38:34;;;;;;;12.20;7.13;;;;;;;;;;4980320;28;20573;-77
2023/10/17 09:41:02;;;;;;;14.82;7.25;;;;;;;;;;4962128;28;20065;-77
2023/10/17 09:43:29;;;;;;;12.25;7.43;;;;;;;;;;4978462;28;20050;-78
2023/10/17 09:46:02;;;;;;;13.05;7.78;;;;;;;;;;4977233;28;20045;-76
2023/10/17 09:48:36;;;;;;;19.10;8.50;;;;;;;;;;4991472;28;21123;-76
2023/10/17 09:51:03;;;;;;;10.60;7.25;;;;;;;;;;4968753;28;20057;-76
2023/10/17 09:53:33;;;;;;;13.75;7.38;;;;;;;;;;4978802;28;20043;-74
2023/10/17 09:56:06;;;;;;;10.45;7.07;;;;;;;;;;4962099;28;20086;-77
2023/10/17 09:58:35;;;;;;;11.73;7.25;;;;;;;;;;4962888;28;20141;-78
2023/10/17 10:01:20;;;;;;;9.00;6.20;;;;;;;;;;4978477;28;20048;-80
2023/10/17 10:03:56;;;;;;;9.38;6.50;;;;;;;;;;4977289;28;20046;-78
2023/10/17 10:06:26;;;;;;;14.50;6.78;;;;;;;;;;4975508;28;20054;-77
2023/10/17 10:09:14;;;;;;;8.75;6.03;;;;;;;;;;4992729;28;20046;-78
2023/10/17 10:11:49;;;;;;;11.02;6.57;;;;;;;;;;4993414;28;20078;-78
2023/10/17 10:14:26;;;;;;;9.13;5.88;;;;;;;;;;4991609;28;20052;-81
2023/10/17 10:17:05;;;;;;;10.38;5.78;;;;;;;;;;4989468;28;20114;-78
2023/10/17 10:19:40;;;;;;;8.80;5.53;;;;;;;;;;4976204;28;20577;-80
2023/10/17 10:22:06;;;;;;;8.88;5.72;;;;;;;;;;4978587;28;20469;-78
2023/10/17 10:24:33;;;;;;;7.15;5.45;;;;;;;;;;4983448;28;20046;-79
2023/10/17 10:27:08;;;;;;;9.82;5.65;;;;;;;;;;4985611;28;20512;-78
2023/10/17 10:29:33;;;;;;;10.05;5.72;;;;;;;;;;4977377;28;20050;-77
2023/10/17 10:32:05;;;;;;;8.27;5.93;;;;;;;;;;4993043;28;20049;-78
2023/10/17 10:34:35;;;;;;;;;;;;;;;;;;4976651;28;20112;-79
2023/10/17 10:37:01;;;;;;;7.90;5.43;;;;;;;;;;4970483;28;19975;-79
2023/10/17 10:39:26;;;;;;;7.72;4.85;;;;;;;;;;4978257;28;20062;-78
2023/10/17 10:42:00;;;;;;;9.55;5.07;;;;;;;;;;4977594;28;20097;-76
2023/10/17 10:44:26;;;;;;;5.18;4.60;;;;;;;;;;4978143;28;20683;-77
2023/10/17 10:46:53;;;;;;;8.15;5.45;;;;;;;;;;4979579;28;20054;-79
2023/10/17 10:49:28;;;;;;;10.10;5.63;;;;;;;;;;4978432;28;20042;-76
2023/10/17 10:51:57;;;;;;;7.40;5.13;;;;;;;;;;4975903;28;20054;-76
2023/10/17 10:54:42;;;;;;;7.45;5.70;;;;;;;;;;4976080;28;20061;-75
2023/10/17 10:57:08;;;;;;;9.13;5.65;;;;;;;;;;4976632;28;20101;-75
2023/10/17 10:59:33;;;;;;;12.90;5.47;;;;;;;;;;4960299;28;20046;-75
2023/10/17 11:01:59;;;;;;;8.88;6.18;;;;;;;;;;4974569;28;20100;-75
2023/10/17 11:04:24;;;;;;;10.32;5.82;;;;;;;;;;4978909;28;20050;-76
2023/10/17 11:06:51;;;;;;;8.88;5.38;;;;;;;;;;4976451;28;20090;-76
2023/10/17 11:09:23;;;;;;;8.68;5.53;;;;;;;;;;4976112;28;20042;-78
2023/10/17 11:11:53;;;;;;;7.53;5.20;;;;;;;;;;4975756;28;20101;-78
2023/10/17 11:14:19;;;;;;;7.38;4.95;;;;;;;;;;4978299;28;20074;-78
2023/10/17 11:16:50;;;;;;;8.15;5.72;;;;;;;;;;4977886;28;20622;-77
2023/10/17 11:19:22;;;;;;;6.53;5.20;;;;;;;;;;4976520;28;20725;-77
2023/10/17 11:21:52;;;;;;;;;;;;;;;;;;4975697;28;20042;-77
2023/10/17 11:24:19;;;;;;;9.20;5.32;;;;;;;;;;4991052;28;19921;-78
2023/10/17 11:26:45;;;;;;;7.22;4.40;;;;;;;;;;4977401;28;20080;-77
2023/10/17 11:29:11;;;;;;;6.60;4.50;;;;;;;;;;4977772;28;20050;-76
2023/10/17 11:31:36;;;;;;;8.50;5.13;;;;;;;;;;4978564;28;20057;-76
2023/10/17 11:34:04;;;;;;;6.75;4.57;;;;;;;;;;4974202;28;20081;-76
2023/10/17 11:36:35;;;;;;;6.68;4.80;;;;;;;;;;4958840;28;20531;-75
2023/10/17 11:39:05;;;;;;;6.47;4.47;;;;;;;;;;4989426;28;20051;-77
2023/10/17 11:41:39;;;;;;;5.50;4.40;;;;;;;;;;4975793;28;20205;-76
2023/10/17 11:44:09;;;;;;;6.35;4.47;;;;;;;;;;4970030;28;20125;-77
2023/10/17 11:46:35;;;;;;;7.57;4.38;;;;;;;;;;4960441;28;20100;-76
2023/10/17 11:49:26;;;;;;;7.38;4.20;;;;;;;;;;4957832;28;20045;-76
2023/10/17 11:52:10;;;;;;;4.70;4.20;;;;;;;;;;4973801;28;20133;-75
2023/10/17 11:54:55;;;;;;;5.85;4.75;;;;;;;;;;4973056;28;20046;-76
2023/10/17 11:57:25;;;;;;;6.03;4.43;;;;;;;;;;4974311;28;20050;-76
2023/10/17 12:02:49;;;;;;;8.18;4.32;;;;;;;;;;4969610;28;20656;-76
2023/10/17 12:05:18;;;;;;;5.45;4.68;;;;;;;;;;4966227;28;20050;-76
2023/10/17 12:07:54;;;;;;;8.25;4.55;;;;;;;;;;4960905;28;20057;-76
2023/10/17 12:10:21;;;;;;;6.95;5.32;;;;;;;;;;4974381;28;20051;-76
2023/10/17 12:12:47;;;;;;;7.38;5.63;;;;;;;;;;4973798;28;20050;-76
2023/10/17 12:15:20;;;;;;;5.93;4.97;;;;;;;;;;4973972;28;20046;-76
2023/10/17 12:17:48;;;;;;;9.00;5.40;;;;;;;;;;4974568;28;20887;-75
2023/10/17 12:20:13;;;;;;;9.10;5.93;;;;;;;;;;4973562;28;20042;-75
2023/10/17 12:22:40;;;;;;;5.55;4.75;;;;;;;;;;4992649;28;20570;-75
2023/10/17 12:25:06;;;;;;;8.55;5.85;;;;;;;;;;4976875;28;20078;-75
2023/10/17 12:27:31;;;;;;;6.40;5.20;;;;;;;;;;4978122;28;20062;-75
2023/10/17 12:29:58;;;;;;;7.00;5.25;;;;;;;;;;4974724;28;20046;-76
2023/10/17 12:32:23;;;;;;;8.10;5.32;;;;;;;;;;4977897;28;20085;-74
2023/10/17 12:34:49;;;;;;;6.95;5.18;;;;;;;;;;4976554;28;20750;-76
2023/10/17 12:37:17;;;;;;;9.80;5.35;;;;;;;;;;4975410;28;20069;-75
2023/10/17 12:39:43;;;;;;;7.05;6.00;;;;;;;;;;4976474;28;20038;-73
2023/10/17 12:42:09;;;;;;;5.10;4.60;;;;;;;;;;4976968;28;20042;-76
2023/10/17 12:44:35;;;;;;;8.85;4.97;;;;;;;;;;4975758;28;20711;-75
2023/10/17 12:47:01;;;;;;;7.10;4.72;;;;;;;;;;4975613;28;20168;-75
2023/10/17 12:49:26;;;;;;;7.45;4.82;;;;;;;;;;4977663;28;20054;-75
2023/10/17 12:51:53;;;;;;;6.95;4.47;;;;;;;;;;4992167;28;20518;-75
2023/10/17 12:54:18;;;;;;;5.28;4.32;;;;;;;;;;4976327;28;20130;-76
2023/10/17 12:56:44;;;;;;;5.82;4.07;;;;;;;;;;4978001;28;20050;-77
2023/10/17 12:59:12;;;;;;;5.13;3.78;;;;;;;;;;4975687;28;20073;-77
2023/10/17 13:01:41;;;;;;;6.47;4.35;;;;;;;;;;4975346;28;20050;-76
2023/10/17 13:04:09;;;;;;;5.93;4.45;;;;;;;;;;4975405;28;20046;-75
2023/10/17 13:06:35;;;;;;;10.07;5.13;;;;;;;;;;4991173;28;20049;-77
2023/10/17 13:09:01;;;;;;;11.65;4.03;;;;;;;;;;4974224;28;20054;-77
2023/10/17 13:11:27;;;;;;;14.23;5.18;;;;;;;;;;4976285;28;20046;-74
2023/10/17 13:13:53;;;;;;;5.32;4.68;;;;;;;;;;4977393;28;20046;-75
2023/10/17 13:16:21;;;;;;;7.90;5.20;;;;;;;;;;4974734;28;20069;-74
2023/10/17 13:18:47;;;;;;;8.23;5.15;;;;;;;;;;4975999;28;20047;-77
2023/10/17 13:21:14;;;;;;;8.88;4.93;;;;;;;;;;4974742;28;20062;-69
2023/10/17 13:23:44;;;;;;;6.38;3.78;;;;;;;;;;4979801;28;20038;-74
2023/10/17 13:26:15;;;;;;;8.55;4.63;;;;;;;;;;4973974;28;20046;-77
2023/10/17 13:28:41;;;;;;;7.13;4.43;;;;;;;;;;4978935;28;20047;-73
2023/10/17 13:31:10;;;;;;;6.72;4.63;;;;;;;;;;4978896;28;20046;-75
2023/10/17 13:33:36;;;;;;;6.65;4.75;;;;;;;;;;4982059;28;20074;-73
2023/10/17 13:36:01;;;;;;;7.30;4.32;;;;;;;;;;4980218;28;20066;-76
2023/10/17 13:38:27;;;;;;;6.03;4.70;;;;;;;;;;4979279;28;20042;-73
2023/10/17 13:41:01;;;;;;;7.68;4.70;;;;;;;;;;4983581;28;20061;-74
2023/10/17 13:43:27;;;;;;;7.07;4.70;;;;;;;;;;4994012;28;20077;-75
2023/10/17 13:45:52;;;;;;;7.30;4.57;;;;;;;;;;4978766;28;20140;-75
2023/10/17 13:48:18;;;;;;;7.28;4.97;;;;;;;;;;4994019;28;20487;-76
2023/10/17 13:50:43;;;;;;;9.20;5.30;;;;;;;;;;4977899;28;20070;-75
2023/10/17 13:53:14;;;;;;;8.73;5.10;;;;;;;;;;4980409;28;20100;-76
2023/10/17 13:55:41;;;;;;;6.28;4.43;;;;;;;;;;4980598;28;20047;-72
2023/10/17 13:58:06;;;;;;;5.43;3.97;;;;;;;;;;4977351;28;20061;-74
2023/10/17 14:00:49;;;;;;;7.05;4.10;;;;;;;;;;4980085;28;20050;-75
2023/10/17 14:03:15;;;;;;;7.78;3.80;;;;;;;;;;4978261;28;20038;-73
2023/10/17 14:05:50;;;;;;;5.95;4.07;;;;;;;;;;4980713;28;20051;-72
2023/10/17 14:08:17;;;;;;;6.13;3.70;;;;;;;;;;4979785;28;20046;-76
2023/10/17 14:10:44;;;;;;;5.32;4.40;;;;;;;;;;4981598;28;20058;-75
2023/10/17 14:13:12;;;;;;;7.03;4.70;;;;;;;;;;4980551;28;20042;-76
2023/10/17 14:15:38;;;;;;;10.35;4.03;;;;;;;;;;4980924;28;20228;-75
2023/10/17 14:18:39;;;;;;;5.22;4.40;;;;;;;;;;4979204;28;20049;-76
2023/10/17 14:21:09;;;;;;;5.50;4.28;;;;;;;;;;4980422;28;20488;-75
2023/10/17 14:23:45;;;;;;;4.80;4.30;;;;;;;;;;4992729;28;20453;-76
2023/10/17 14:26:11;;;;;;;4.90;4.03;;;;;;;;;;4977318;28;20100;-75
2023/10/17 14:28:37;;;;;;;6.28;4.47;;;;;;;;;;4979348;28;20074;-75
2023/10/17 14:31:09;;;;;;;6.47;4.25;;;;;;;;;;4979032;28;20053;-75
2023/10/17 14:33:35;;;;;;;;;;;;;;;;;;4979889;28;20128;-71
2023/10/17 14:36:02;;;;;;;7.75;4.18;;;;;;;;;;4979597;28;19921;-75
2023/10/17 14:38:28;;;;;;;8.05;4.47;;;;;;;;;;4977763;28;20074;-75
2023/10/17 14:40:54;;;;;;;5.25;4.35;;;;;;;;;;4976299;28;20124;-76
2023/10/17 14:43:19;;;;;;;9.05;4.88;;;;;;;;;;4979943;28;20128;-77
2023/10/17 14:45:45;;;;;;;5.05;4.20;;;;;;;;;;4978273;28;20049;-75
2023/10/17 14:48:11;;;;;;;6.90;4.28;;;;;;;;;;4976236;28;20046;-77
2023/10/17 14:50:40;;;;;;;7.13;4.50;;;;;;;;;;4978052;28;20059;-76
2023/10/17 14:53:06;;;;;;;8.20;4.78;;;;;;;;;;4975871;28;20042;-76
2023/10/17 14:55:33;;;;;;;6.47;3.88;;;;;;;;;;4977144;28;20046;-78
2023/10/17 14:58:00;;;;;;;12.63;4.50;;;;;;;;;;4972490;28;20050;-77
2023/10/17 15:00:28;;;;;;;7.15;4.35;;;;;;;;;;4979951;28;20108;-76
2023/10/17 15:02:55;;;;;;;5.93;3.97;;;;;;;;;;4978026;28;20045;-75
2023/10/17 15:05:21;;;;;;;5.18;3.97;;;;;;;;;;4962913;28;20072;-77
2023/10/17 15:07:46;;;;;;;5.53;4.13;;;;;;;;;;4975228;28;20676;-76
2023/10/17 15:10:12;;;;;;;6.32;4.53;;;;;;;;;;4974142;28;20137;-78
2023/10/17 15:12:42;;;;;;;7.15;4.25;;;;;;;;;;4974833;28;20130;-73
2023/10/17 15:15:12;;;;;;;7.18;4.30;;;;;;;;;;4974523;28;20741;-74
2023/10/17 15:17:38;;;;;;;8.23;5.13;;;;;;;;;;4971252;28;20058;-75
2023/10/17 15:20:05;;;;;;;5.32;4.50;;;;;;;;;;4974686;28;20046;-75
2023/10/17 15:22:31;;;;;;;6.05;4.50;;;;;;;;;;4977554;28;20148;-75
2023/10/17 15:24:58;;;;;;;10.18;4.25;;;;;;;;;;4975673;28;20404;-74
2023/10/17 15:27:24;;;;;;;6.43;5.25;;;;;;;;;;4972853;28;20085;-74
2023/10/17 15:29:50;;;;;;;8.50;5.30;;;;;;;;;;4976785;28;20581;-73
2023/10/17 15:32:15;;;;;;;6.32;5.03;;;;;;;;;;4977156;28;20077;-73
2023/10/17 15:34:41;;;;;;;6.10;4.53;;;;;;;;;;4978685;28;20186;-74
2023/10/17 15:37:06;;;;;;;4.75;4.25;;;;;;;;;;4975958;28;20619;-74
2023/10/17 15:39:32;;;;;;;6.82;4.80;;;;;;;;;;4976288;28;20042;-74
2023/10/17 15:41:58;;;;;;;10.27;4.82;;;;;;;;;;4976251;28;20462;-75
2023/10/17 15:44:23;;;;;;;6.95;4.80;;;;;;;;;;4975251;28;20042;-74
2023/10/17 15:46:49;;;;;;;8.52;4.63;;;;;;;;;;4977536;28;20959;-73
2023/10/17 15:49:16;;;;;;;9.18;5.15;;;;;;;;;;4977895;28;20554;-74
2023/10/17 15:51:42;;;;;;;6.32;4.65;;;;;;;;;;4974723;28;20050;-73
2023/10/17 15:54:09;;;;;;;10.93;5.13;;;;;;;;;;4974106;28;20424;-74
2023/10/17 15:56:34;;;;;;;6.82;4.85;;;;;;;;;;4976005;28;20050;-74
2023/10/17 15:59:01;;;;;;;9.63;4.95;;;;;;;;;;4977468;28;20046;-73
2023/10/17 16:01:26;;;;;;;5.65;4.80;;;;;;;;;;4977930;28;20061;-74
2023/10/17 16:03:52;;;;;;;5.80;4.60;;;;;;;;;;4977908;28;20058;-74
2023/10/17 16:06:18;;;;;;;8.35;4.68;;;;;;;;;;4976509;28;20047;-76
2023/10/17 16:08:45;;;;;;;7.03;4.40;;;;;;;;;;4974953;28;20042;-72
2023/10/17 16:11:11;;;;;;;9.88;5.43;;;;;;;;;;4979514;28;20069;-72
2023/10/17 16:13:38;;;;;;;7.63;5.40;;;;;;;;;;4973493;28;20042;-74
2023/10/17 16:16:06;;;;;;;10.25;6.70;;;;;;;;;;4975288;28;20042;-72
2023/10/17 16:18:32;;;;;;;12.75;8.35;;;;;;;;;;4992304;28;20053;-72
2023/10/17 16:20:58;;;;;;;12.82;6.10;;;;;;;;;;4977829;28;20050;-74
2023/10/17 16:23:23;;;;;;;7.63;5.07;;;;;;;;;;4977482;28;20062;-74
2023/10/17 16:25:49;;;;;;;8.80;5.13;;;;;;;;;;4978344;28;20121;-71
2023/10/17 16:28:16;;;;;;;8.15;5.22;;;;;;;;;;4976086;28;20503;-71
2023/10/17 16:30:42;;;;;;;13.68;5.82;;;;;;;;;;4976436;28;20400;-73
2023/10/17 16:33:08;;;;;;;7.97;5.55;;;;;;;;;;4977960;28;20065;-73
2023/10/17 16:35:36;;;;;;;8.93;5.30;;;;;;;;;;4975551;28;20057;-72
2023/10/17 16:38:04;;;;;;;10.27;5.80;;;;;;;;;;4977066;28;20939;-75
2023/10/17 16:40:30;;;;;;;8.25;6.35;;;;;;;;;;4977206;28;20524;-74
2023/10/17 16:42:56;;;;;;;9.00;6.03;;;;;;;;;;4977355;28;20146;-71
2023/10/17 16:45:21;;;;;;;36.53;21.23;;;;;;;;;;4975458;28;20042;-74
2023/10/17 16:47:47;;;;;;;8.93;6.80;;;;;;;;;;4970775;28;20969;-71
2023/10/17 16:50:12;;;;;;;12.27;7.20;;;;;;;;;;4974180;28;20153;-71
2023/10/17 16:52:41;;;;;;;10.98;6.85;;;;;;;;;;4972237;28;20050;-72
2023/10/17 16:55:09;;;;;;;8.40;6.00;;;;;;;;;;4975013;28;20160;-73
2023/10/17 16:57:35;;;;;;;10.82;6.15;;;;;;;;;;4973822;28;20042;-72
2023/10/17 17:00:01;;;;;;;13.40;6.95;;;;;;;;;;4971151;28;20577;-72